PUUANAHULU HI US current weather conditions

sailwx.info

Wind from 130 at 6 knots gusting 8

Air temperature 14.4° C
Dewpoint 12.1° C

Last reported at 2016-May-31 15:37 UTC.
Time now 2016-May-31 16:08 UTC

Location: N 19°50' W 155°46'.
View on Google Maps.

See reports from other nearby stations

  
Tides and Currents Weather Stations Pressure Air Temp Water Temp Dewpoint Dewpoint Depression Visibility Wind Speed Wind Dir Waves Ship Positions
date/time (UTC)wind fromknots sea level pressurealtimeterstation pressurevisibilityair tempwater tempwave heightnotes
2016-May-31 15:37 130 6 gusting 8 14.4
2016-May-31 14:37 129 6 gusting 6 14.4
2016-May-31 13:37 130 5 gusting 6 14.4
2016-May-31 12:37 131 5 gusting 6 15.0
2016-May-31 11:37 127 4 gusting 6 15.6
2016-May-31 10:37 143 5 gusting 6 16.1
2016-May-31 09:37 159 5 gusting 6 16.7
2016-May-31 08:37 147 1 gusting 5 16.7
2016-May-31 07:37 152 4 gusting 6 17.8
2016-May-31 06:37 205 3 gusting 4 18.3
2016-May-31 05:37 331 1 gusting 5 20.0
2016-May-31 04:37 261 5 gusting 9 21.7
2016-May-31 03:37 287 6 gusting 12 23.3
2016-May-31 02:37 277 7 gusting 14 23.9
2016-May-31 01:37 271 8 gusting 14 23.3
2016-May-31 00:37 246 10 gusting 18 23.3
2016-May-30 23:37 265 8 gusting 14 22.8
2016-May-30 22:37 284 7 gusting 15 22.2
2016-May-30 21:37 284 8 gusting 13 23.9
2016-May-30 20:37 313 6 gusting 13 23.9
2016-May-30 19:37 298 4 gusting 9 23.3
2016-May-30 18:37 312 4 gusting 7 22.8
2016-May-30 17:37 152 0 gusting 6 21.7
2016-May-30 16:37 130 5 gusting 9 15.6
2016-May-30 15:37 132 6 gusting 8 13.9
2016-May-30 14:37 138 6 gusting 8 13.9
2016-May-30 13:37 139 4 gusting 6 14.4
2016-May-30 12:37 126 6 gusting 7 14.4
2016-May-30 11:37 128 5 gusting 7 14.4
2016-May-30 10:37 122 4 gusting 5 15.6
2016-May-30 09:37 131 4 gusting 5 15.6
2016-May-30 08:37 128 1 gusting 6 16.7
2016-May-30 07:37 159 2 gusting 4 16.7
2016-May-30 06:37 176 1 gusting 4 17.2
2016-May-30 05:37 247 3 gusting 11 18.3
2016-May-30 04:37 276 8 gusting 14 19.4
2016-May-30 03:37 261 9 gusting 15 20.0
2016-May-30 02:37 288 9 gusting 14 21.7
2016-May-30 01:37 283 8 gusting 14 22.8
2016-May-30 00:37 277 7 gusting 14 23.3
2016-May-29 23:37 284 7 gusting 14 23.3
2016-May-29 22:37 283 8 gusting 14 23.9
2016-May-29 21:37 316 5 gusting 13 23.9
2016-May-29 20:37 283 5 gusting 11 22.2
2016-May-29 19:37 299 6 gusting 10 22.8
2016-May-29 18:37 356 3 gusting 6 22.8
2016-May-29 17:37 169 2 gusting 4 20.6
2016-May-29 16:37 071 1 gusting 5 18.9